« Back
NWS Peachtree City, Ga » Text Product » ATL Terminal Aerodrome Forecast


Printer-friendly Version
Current Version              Previous Versions:   1  2  3  4  5  6  7  8  9  

Terminal Aerodrome Forecast

307
FTUS42 KFFC 241700
TAFATL
TAF
KATL 241731Z 2418/2524 27007KT P6SM FEW150 SCT250
     FM242000 31008KT P6SM FEW150
     FM250000 33005KT P6SM SKC
     FM251900 33008KT P6SM SKC=

USA.gov is the U.S. government's official web portal to all federal, state and local government web resources and services.